sensor_id;sensor_type;location;lat;lon;timestamp;P1;durP1;ratioP1;P2;durP2;ratioP2
2896;SDS011;1458;49.728;9.228;2023-03-23T00:01:23;5.90;;;5.90;;
2896;SDS011;1458;49.728;9.228;2023-03-23T00:03:55;5.90;;;5.90;;
2896;SDS011;1458;49.728;9.228;2023-03-23T00:06:26;6.00;;;6.00;;
2896;SDS011;1458;49.728;9.228;2023-03-23T00:08:59;5.80;;;5.80;;
2896;SDS011;1458;49.728;9.228;2023-03-23T00:11:30;5.70;;;5.70;;
2896;SDS011;1458;49.728;9.228;2023-03-23T00:14:06;5.83;;;5.83;;
2896;SDS011;1458;49.728;9.228;2023-03-23T00:16:40;5.90;;;5.90;;
2896;SDS011;1458;49.728;9.228;2023-03-23T00:19:12;5.50;;;5.50;;
2896;SDS011;1458;49.728;9.228;2023-03-23T00:21:44;5.70;;;5.70;;
2896;SDS011;1458;49.728;9.228;2023-03-23T00:24:14;5.50;;;5.50;;
2896;SDS011;1458;49.728;9.228;2023-03-23T00:26:46;5.70;;;5.70;;
2896;SDS011;1458;49.728;9.228;2023-03-23T00:29:19;6.00;;;6.00;;
2896;SDS011;1458;49.728;9.228;2023-03-23T00:31:56;6.10;;;6.10;;
2896;SDS011;1458;49.728;9.228;2023-03-23T00:34:25;5.80;;;5.80;;
2896;SDS011;1458;49.728;9.228;2023-03-23T00:36:59;6.10;;;6.10;;
2896;SDS011;1458;49.728;9.228;2023-03-23T00:39:28;6.00;;;6.00;;
2896;SDS011;1458;49.728;9.228;2023-03-23T00:41:55;5.77;;;5.77;;
2896;SDS011;1458;49.728;9.228;2023-03-23T00:44:30;6.17;;;6.17;;
2896;SDS011;1458;49.728;9.228;2023-03-23T00:47:05;6.00;;;6.00;;
2896;SDS011;1458;49.728;9.228;2023-03-23T00:49:37;5.90;;;5.90;;
2896;SDS011;1458;49.728;9.228;2023-03-23T00:52:09;5.80;;;5.80;;
2896;SDS011;1458;49.728;9.228;2023-03-23T00:54:37;5.90;;;5.90;;
2896;SDS011;1458;49.728;9.228;2023-03-23T00:57:08;6.10;;;6.10;;
2896;SDS011;1458;49.728;9.228;2023-03-23T00:59:36;5.80;;;5.80;;
2896;SDS011;1458;49.728;9.228;2023-03-23T01:02:08;5.30;;;5.30;;
2896;SDS011;1458;49.728;9.228;2023-03-23T01:04:40;5.70;;;5.70;;
2896;SDS011;1458;49.728;9.228;2023-03-23T01:07:11;5.43;;;5.43;;
2896;SDS011;1458;49.728;9.228;2023-03-23T01:09:42;5.73;;;5.73;;
2896;SDS011;1458;49.728;9.228;2023-03-23T01:12:14;5.70;;;5.70;;
2896;SDS011;1458;49.728;9.228;2023-03-23T01:14:45;5.80;;;5.80;;
2896;SDS011;1458;49.728;9.228;2023-03-23T01:17:17;5.80;;;5.80;;
2896;SDS011;1458;49.728;9.228;2023-03-23T01:19:47;5.80;;;5.80;;
2896;SDS011;1458;49.728;9.228;2023-03-23T01:22:16;5.80;;;5.80;;
2896;SDS011;1458;49.728;9.228;2023-03-23T01:24:43;6.00;;;6.00;;
2896;SDS011;1458;49.728;9.228;2023-03-23T01:27:13;5.70;;;5.70;;
2896;SDS011;1458;49.728;9.228;2023-03-23T01:29:44;5.80;;;5.80;;
2896;SDS011;1458;49.728;9.228;2023-03-23T01:32:17;5.80;;;5.80;;
2896;SDS011;1458;49.728;9.228;2023-03-23T01:34:47;5.90;;;5.90;;
2896;SDS011;1458;49.728;9.228;2023-03-23T01:37:15;6.00;;;6.00;;
2896;SDS011;1458;49.728;9.228;2023-03-23T01:39:43;6.00;;;6.00;;
2896;SDS011;1458;49.728;9.228;2023-03-23T01:42:13;5.90;;;5.90;;
2896;SDS011;1458;49.728;9.228;2023-03-23T01:47:57;5.90;;;5.90;;
2896;SDS011;1458;49.728;9.228;2023-03-23T01:50:42;6.07;;;6.07;;
2896;SDS011;1458;49.728;9.228;2023-03-23T01:53:17;6.00;;;6.00;;
2896;SDS011;1458;49.728;9.228;2023-03-23T01:55:46;5.87;;;5.87;;
2896;SDS011;1458;49.728;9.228;2023-03-23T01:58:17;6.00;;;6.00;;
2896;SDS011;1458;49.728;9.228;2023-03-23T02:00:50;5.70;;;5.70;;
2896;SDS011;1458;49.728;9.228;2023-03-23T02:03:22;6.10;;;6.10;;
2896;SDS011;1458;49.728;9.228;2023-03-23T02:05:50;6.00;;;6.00;;
2896;SDS011;1458;49.728;9.228;2023-03-23T02:08:27;5.90;;;5.90;;
2896;SDS011;1458;49.728;9.228;2023-03-23T02:11:00;6.33;;;6.30;;
2896;SDS011;1458;49.728;9.228;2023-03-23T02:13:28;6.00;;;6.00;;
2896;SDS011;1458;49.728;9.228;2023-03-23T02:15:58;6.43;;;6.43;;
2896;SDS011;1458;49.728;9.228;2023-03-23T02:18:40;5.90;;;5.90;;
2896;SDS011;1458;49.728;9.228;2023-03-23T02:24:41;6.10;;;6.10;;
2896;SDS011;1458;49.728;9.228;2023-03-23T02:27:47;5.80;;;5.80;;
2896;SDS011;1458;49.728;9.228;2023-03-23T02:30:41;6.10;;;6.10;;
2896;SDS011;1458;49.728;9.228;2023-03-23T02:33:37;6.30;;;6.30;;
2896;SDS011;1458;49.728;9.228;2023-03-23T02:36:15;6.20;;;6.20;;
2896;SDS011;1458;49.728;9.228;2023-03-23T02:38:55;6.40;;;6.40;;
2896;SDS011;1458;49.728;9.228;2023-03-23T02:41:30;6.40;;;6.40;;
2896;SDS011;1458;49.728;9.228;2023-03-23T02:44:03;6.20;;;6.20;;
2896;SDS011;1458;49.728;9.228;2023-03-23T02:46:32;6.90;;;6.80;;
2896;SDS011;1458;49.728;9.228;2023-03-23T02:49:02;6.50;;;6.50;;
2896;SDS011;1458;49.728;9.228;2023-03-23T02:51:35;6.40;;;6.40;;
2896;SDS011;1458;49.728;9.228;2023-03-23T02:54:04;6.30;;;6.30;;
2896;SDS011;1458;49.728;9.228;2023-03-23T02:56:33;6.30;;;6.30;;
2896;SDS011;1458;49.728;9.228;2023-03-23T02:59:07;6.70;;;6.60;;
2896;SDS011;1458;49.728;9.228;2023-03-23T03:01:58;6.60;;;6.50;;
2896;SDS011;1458;49.728;9.228;2023-03-23T03:04:33;6.40;;;6.40;;
2896;SDS011;1458;49.728;9.228;2023-03-23T03:07:18;6.50;;;6.50;;
2896;SDS011;1458;49.728;9.228;2023-03-23T03:10:01;6.50;;;6.50;;
2896;SDS011;1458;49.728;9.228;2023-03-23T03:12:41;6.60;;;6.60;;
2896;SDS011;1458;49.728;9.228;2023-03-23T03:15:17;6.10;;;6.10;;
2896;SDS011;1458;49.728;9.228;2023-03-23T03:17:55;6.30;;;6.30;;
2896;SDS011;1458;49.728;9.228;2023-03-23T03:20:32;6.60;;;6.60;;
2896;SDS011;1458;49.728;9.228;2023-03-23T03:23:04;6.50;;;6.50;;
2896;SDS011;1458;49.728;9.228;2023-03-23T03:25:35;6.83;;;6.73;;
2896;SDS011;1458;49.728;9.228;2023-03-23T03:28:05;6.50;;;6.50;;
2896;SDS011;1458;49.728;9.228;2023-03-23T03:30:42;6.20;;;6.20;;
2896;SDS011;1458;49.728;9.228;2023-03-23T03:33:12;6.20;;;6.20;;
2896;SDS011;1458;49.728;9.228;2023-03-23T03:35:42;6.23;;;6.23;;
2896;SDS011;1458;49.728;9.228;2023-03-23T03:38:10;6.10;;;6.10;;
2896;SDS011;1458;49.728;9.228;2023-03-23T03:40:41;6.10;;;6.10;;
2896;SDS011;1458;49.728;9.228;2023-03-23T03:43:08;6.20;;;6.20;;
2896;SDS011;1458;49.728;9.228;2023-03-23T03:45:36;6.17;;;6.17;;
2896;SDS011;1458;49.728;9.228;2023-03-23T03:48:03;6.20;;;6.20;;
2896;SDS011;1458;49.728;9.228;2023-03-23T03:50:35;5.90;;;5.90;;
2896;SDS011;1458;49.728;9.228;2023-03-23T03:53:04;5.90;;;5.90;;
2896;SDS011;1458;49.728;9.228;2023-03-23T03:55:32;6.10;;;6.10;;
2896;SDS011;1458;49.728;9.228;2023-03-23T03:58:03;6.10;;;6.10;;
2896;SDS011;1458;49.728;9.228;2023-03-23T04:00:53;6.00;;;6.00;;
2896;SDS011;1458;49.728;9.228;2023-03-23T04:03:25;6.10;;;6.10;;
2896;SDS011;1458;49.728;9.228;2023-03-23T04:06:19;5.70;;;5.70;;
2896;SDS011;1458;49.728;9.228;2023-03-23T04:08:51;6.10;;;6.10;;
2896;SDS011;1458;49.728;9.228;2023-03-23T04:11:20;6.57;;;6.50;;
2896;SDS011;1458;49.728;9.228;2023-03-23T04:13:48;6.10;;;6.10;;
2896;SDS011;1458;49.728;9.228;2023-03-23T04:16:20;5.80;;;5.80;;
2896;SDS011;1458;49.728;9.228;2023-03-23T04:18:48;5.70;;;5.70;;
2896;SDS011;1458;49.728;9.228;2023-03-23T04:21:17;5.70;;;5.70;;
2896;SDS011;1458;49.728;9.228;2023-03-23T04:23:47;5.70;;;5.70;;
2896;SDS011;1458;49.728;9.228;2023-03-23T04:26:16;5.50;;;5.50;;
2896;SDS011;1458;49.728;9.228;2023-03-23T04:28:48;5.30;;;5.30;;
2896;SDS011;1458;49.728;9.228;2023-03-23T04:31:52;5.60;;;5.60;;
2896;SDS011;1458;49.728;9.228;2023-03-23T04:34:43;5.80;;;5.80;;
2896;SDS011;1458;49.728;9.228;2023-03-23T04:37:10;5.73;;;5.73;;
2896;SDS011;1458;49.728;9.228;2023-03-23T04:39:39;5.70;;;5.70;;
2896;SDS011;1458;49.728;9.228;2023-03-23T04:42:08;5.70;;;5.70;;
2896;SDS011;1458;49.728;9.228;2023-03-23T04:44:36;5.50;;;5.50;;
2896;SDS011;1458;49.728;9.228;2023-03-23T04:47:10;5.90;;;5.90;;
2896;SDS011;1458;49.728;9.228;2023-03-23T04:49:45;5.63;;;5.63;;
2896;SDS011;1458;49.728;9.228;2023-03-23T04:52:22;5.93;;;5.93;;
2896;SDS011;1458;49.728;9.228;2023-03-23T04:54:54;5.80;;;5.80;;
2896;SDS011;1458;49.728;9.228;2023-03-23T04:57:24;5.37;;;5.37;;
2896;SDS011;1458;49.728;9.228;2023-03-23T05:00:15;5.10;;;5.10;;
2896;SDS011;1458;49.728;9.228;2023-03-23T05:02:48;4.30;;;4.30;;
2896;SDS011;1458;49.728;9.228;2023-03-23T05:05:19;4.10;;;4.10;;
2896;SDS011;1458;49.728;9.228;2023-03-23T05:07:50;4.00;;;4.00;;
2896;SDS011;1458;49.728;9.228;2023-03-23T05:10:23;3.50;;;3.50;;
2896;SDS011;1458;49.728;9.228;2023-03-23T05:13:01;3.40;;;3.40;;
2896;SDS011;1458;49.728;9.228;2023-03-23T05:15:34;3.03;;;3.03;;
2896;SDS011;1458;49.728;9.228;2023-03-23T05:18:03;2.80;;;2.80;;
2896;SDS011;1458;49.728;9.228;2023-03-23T05:20:35;2.10;;;2.10;;
2896;SDS011;1458;49.728;9.228;2023-03-23T05:23:16;2.10;;;2.10;;
2896;SDS011;1458;49.728;9.228;2023-03-23T05:25:52;1.90;;;1.90;;
2896;SDS011;1458;49.728;9.228;2023-03-23T05:28:24;1.70;;;1.70;;
2896;SDS011;1458;49.728;9.228;2023-03-23T05:31:07;1.70;;;1.70;;
2896;SDS011;1458;49.728;9.228;2023-03-23T05:33:42;1.60;;;1.60;;
2896;SDS011;1458;49.728;9.228;2023-03-23T05:36:34;1.50;;;1.50;;
2896;SDS011;1458;49.728;9.228;2023-03-23T05:39:23;1.40;;;1.40;;
2896;SDS011;1458;49.728;9.228;2023-03-23T05:42:12;1.40;;;1.40;;
2896;SDS011;1458;49.728;9.228;2023-03-23T05:45:07;1.40;;;1.40;;
2896;SDS011;1458;49.728;9.228;2023-03-23T05:47:58;1.50;;;1.50;;
2896;SDS011;1458;49.728;9.228;2023-03-23T05:50:36;1.70;;;1.70;;
2896;SDS011;1458;49.728;9.228;2023-03-23T05:53:06;1.70;;;1.70;;
2896;SDS011;1458;49.728;9.228;2023-03-23T05:55:41;1.73;;;1.73;;
2896;SDS011;1458;49.728;9.228;2023-03-23T05:58:21;1.60;;;1.60;;
2896;SDS011;1458;49.728;9.228;2023-03-23T06:00:51;1.80;;;1.80;;
2896;SDS011;1458;49.728;9.228;2023-03-23T06:03:25;1.80;;;1.80;;
2896;SDS011;1458;49.728;9.228;2023-03-23T06:06:15;1.60;;;1.60;;
2896;SDS011;1458;49.728;9.228;2023-03-23T06:08:58;2.00;;;2.00;;
2896;SDS011;1458;49.728;9.228;2023-03-23T06:12:01;2.20;;;2.20;;
2896;SDS011;1458;49.728;9.228;2023-03-23T06:14:46;1.90;;;1.90;;
2896;SDS011;1458;49.728;9.228;2023-03-23T06:17:20;2.00;;;2.00;;
2896;SDS011;1458;49.728;9.228;2023-03-23T06:19:51;2.03;;;2.03;;
2896;SDS011;1458;49.728;9.228;2023-03-23T06:22:19;1.90;;;1.90;;
2896;SDS011;1458;49.728;9.228;2023-03-23T06:25:07;2.10;;;2.10;;
2896;SDS011;1458;49.728;9.228;2023-03-23T06:27:39;1.93;;;1.93;;
2896;SDS011;1458;49.728;9.228;2023-03-23T06:30:08;2.10;;;2.10;;
2896;SDS011;1458;49.728;9.228;2023-03-23T06:32:38;2.00;;;2.00;;
2896;SDS011;1458;49.728;9.228;2023-03-23T06:35:09;2.00;;;2.00;;
2896;SDS011;1458;49.728;9.228;2023-03-23T06:37:55;2.00;;;2.00;;
2896;SDS011;1458;49.728;9.228;2023-03-23T06:40:46;2.10;;;2.10;;
2896;SDS011;1458;49.728;9.228;2023-03-23T06:43:16;2.20;;;2.20;;
2896;SDS011;1458;49.728;9.228;2023-03-23T06:45:52;2.10;;;2.10;;
2896;SDS011;1458;49.728;9.228;2023-03-23T06:48:44;2.20;;;2.20;;
2896;SDS011;1458;49.728;9.228;2023-03-23T06:51:16;2.20;;;2.20;;
2896;SDS011;1458;49.728;9.228;2023-03-23T06:53:48;2.50;;;2.50;;
2896;SDS011;1458;49.728;9.228;2023-03-23T06:56:16;2.70;;;2.70;;
2896;SDS011;1458;49.728;9.228;2023-03-23T06:58:44;2.50;;;2.50;;
2896;SDS011;1458;49.728;9.228;2023-03-23T07:01:13;2.50;;;2.50;;
2896;SDS011;1458;49.728;9.228;2023-03-23T07:03:50;2.73;;;2.73;;
2896;SDS011;1458;49.728;9.228;2023-03-23T07:06:26;2.50;;;2.50;;
2896;SDS011;1458;49.728;9.228;2023-03-23T07:08:57;2.50;;;2.50;;
2896;SDS011;1458;49.728;9.228;2023-03-23T07:11:27;2.50;;;2.50;;
2896;SDS011;1458;49.728;9.228;2023-03-23T07:13:59;2.30;;;2.30;;
2896;SDS011;1458;49.728;9.228;2023-03-23T07:16:26;2.57;;;2.57;;
2896;SDS011;1458;49.728;9.228;2023-03-23T07:18:55;2.57;;;2.57;;
2896;SDS011;1458;49.728;9.228;2023-03-23T07:21:23;2.53;;;2.53;;
2896;SDS011;1458;49.728;9.228;2023-03-23T07:23:51;2.40;;;2.40;;
2896;SDS011;1458;49.728;9.228;2023-03-23T07:26:39;2.50;;;2.50;;
2896;SDS011;1458;49.728;9.228;2023-03-23T07:29:07;2.50;;;2.50;;
2896;SDS011;1458;49.728;9.228;2023-03-23T07:31:40;2.90;;;2.90;;
2896;SDS011;1458;49.728;9.228;2023-03-23T07:34:09;2.53;;;2.53;;
2896;SDS011;1458;49.728;9.228;2023-03-23T07:37:00;2.20;;;2.20;;
2896;SDS011;1458;49.728;9.228;2023-03-23T07:39:30;2.40;;;2.40;;
2896;SDS011;1458;49.728;9.228;2023-03-23T07:41:59;2.10;;;2.10;;
2896;SDS011;1458;49.728;9.228;2023-03-23T07:44:41;2.10;;;2.10;;
2896;SDS011;1458;49.728;9.228;2023-03-23T07:47:11;1.93;;;1.93;;
2896;SDS011;1458;49.728;9.228;2023-03-23T07:49:41;1.70;;;1.70;;
2896;SDS011;1458;49.728;9.228;2023-03-23T07:52:35;2.10;;;2.10;;
2896;SDS011;1458;49.728;9.228;2023-03-23T07:55:05;2.00;;;2.00;;
2896;SDS011;1458;49.728;9.228;2023-03-23T07:58:09;1.80;;;1.80;;
2896;SDS011;1458;49.728;9.228;2023-03-23T08:00:42;1.50;;;1.50;;
2896;SDS011;1458;49.728;9.228;2023-03-23T08:03:10;1.80;;;1.80;;
2896;SDS011;1458;49.728;9.228;2023-03-23T08:05:58;1.63;;;1.63;;
2896;SDS011;1458;49.728;9.228;2023-03-23T08:08:46;1.73;;;1.73;;
2896;SDS011;1458;49.728;9.228;2023-03-23T08:11:33;1.30;;;1.30;;
2896;SDS011;1458;49.728;9.228;2023-03-23T08:14:17;1.10;;;1.10;;
2896;SDS011;1458;49.728;9.228;2023-03-23T08:17:22;1.33;;;1.33;;
2896;SDS011;1458;49.728;9.228;2023-03-23T08:20:09;1.10;;;1.10;;
2896;SDS011;1458;49.728;9.228;2023-03-23T08:22:58;1.40;;;1.40;;
2896;SDS011;1458;49.728;9.228;2023-03-23T08:25:27;1.30;;;1.30;;
2896;SDS011;1458;49.728;9.228;2023-03-23T08:28:16;0.97;;;0.97;;
2896;SDS011;1458;49.728;9.228;2023-03-23T08:31:07;0.90;;;0.90;;
2896;SDS011;1458;49.728;9.228;2023-03-23T08:33:58;0.97;;;0.97;;
2896;SDS011;1458;49.728;9.228;2023-03-23T08:37:00;0.90;;;0.90;;
2896;SDS011;1458;49.728;9.228;2023-03-23T08:39:50;0.83;;;0.83;;
2896;SDS011;1458;49.728;9.228;2023-03-23T08:42:35;0.90;;;0.90;;
2896;SDS011;1458;49.728;9.228;2023-03-23T08:45:10;0.80;;;0.80;;
2896;SDS011;1458;49.728;9.228;2023-03-23T08:47:59;0.80;;;0.80;;
2896;SDS011;1458;49.728;9.228;2023-03-23T08:50:45;0.80;;;0.80;;
2896;SDS011;1458;49.728;9.228;2023-03-23T08:53:27;0.70;;;0.70;;
2896;SDS011;1458;49.728;9.228;2023-03-23T08:56:16;0.83;;;0.83;;
2896;SDS011;1458;49.728;9.228;2023-03-23T08:59:05;1.00;;;1.00;;
2896;SDS011;1458;49.728;9.228;2023-03-23T09:01:54;0.80;;;0.80;;
2896;SDS011;1458;49.728;9.228;2023-03-23T09:04:42;0.90;;;0.90;;
2896;SDS011;1458;49.728;9.228;2023-03-23T09:07:22;1.10;;;1.10;;
2896;SDS011;1458;49.728;9.228;2023-03-23T09:09:50;1.20;;;1.20;;
2896;SDS011;1458;49.728;9.228;2023-03-23T09:12:18;1.00;;;1.00;;
2896;SDS011;1458;49.728;9.228;2023-03-23T09:14:46;0.90;;;0.90;;
2896;SDS011;1458;49.728;9.228;2023-03-23T09:17:13;0.90;;;0.90;;
2896;SDS011;1458;49.728;9.228;2023-03-23T09:19:41;1.00;;;1.00;;
2896;SDS011;1458;49.728;9.228;2023-03-23T09:22:09;1.10;;;1.10;;
2896;SDS011;1458;49.728;9.228;2023-03-23T09:24:37;1.20;;;1.20;;
2896;SDS011;1458;49.728;9.228;2023-03-23T09:27:04;1.20;;;1.20;;
2896;SDS011;1458;49.728;9.228;2023-03-23T09:29:34;1.20;;;1.20;;
2896;SDS011;1458;49.728;9.228;2023-03-23T09:32:02;1.30;;;1.30;;
2896;SDS011;1458;49.728;9.228;2023-03-23T09:34:29;1.10;;;1.10;;
2896;SDS011;1458;49.728;9.228;2023-03-23T09:37:00;1.30;;;1.30;;
2896;SDS011;1458;49.728;9.228;2023-03-23T09:39:29;1.30;;;1.30;;
2896;SDS011;1458;49.728;9.228;2023-03-23T09:42:00;1.20;;;1.20;;
2896;SDS011;1458;49.728;9.228;2023-03-23T09:44:51;1.10;;;1.10;;
2896;SDS011;1458;49.728;9.228;2023-03-23T09:47:35;1.00;;;1.00;;
2896;SDS011;1458;49.728;9.228;2023-03-23T09:50:09;1.10;;;1.10;;
2896;SDS011;1458;49.728;9.228;2023-03-23T09:52:43;1.23;;;1.23;;
2896;SDS011;1458;49.728;9.228;2023-03-23T09:55:17;1.50;;;1.50;;
2896;SDS011;1458;49.728;9.228;2023-03-23T09:57:47;1.10;;;1.10;;
2896;SDS011;1458;49.728;9.228;2023-03-23T10:00:25;1.50;;;1.50;;
2896;SDS011;1458;49.728;9.228;2023-03-23T10:03:05;1.40;;;1.40;;
2896;SDS011;1458;49.728;9.228;2023-03-23T10:05:41;1.30;;;1.30;;
2896;SDS011;1458;49.728;9.228;2023-03-23T10:08:11;1.50;;;1.50;;
2896;SDS011;1458;49.728;9.228;2023-03-23T10:10:45;1.40;;;1.40;;
2896;SDS011;1458;49.728;9.228;2023-03-23T10:13:27;1.73;;;1.73;;
2896;SDS011;1458;49.728;9.228;2023-03-23T10:16:11;2.03;;;2.03;;
2896;SDS011;1458;49.728;9.228;2023-03-23T10:18:46;2.17;;;2.17;;
2896;SDS011;1458;49.728;9.228;2023-03-23T10:21:22;2.40;;;2.40;;
2896;SDS011;1458;49.728;9.228;2023-03-23T10:23:52;2.20;;;2.20;;
2896;SDS011;1458;49.728;9.228;2023-03-23T10:26:28;2.57;;;2.57;;
2896;SDS011;1458;49.728;9.228;2023-03-23T10:29:11;2.73;;;2.73;;
2896;SDS011;1458;49.728;9.228;2023-03-23T10:31:45;2.90;;;2.90;;
2896;SDS011;1458;49.728;9.228;2023-03-23T10:34:19;3.00;;;3.00;;
2896;SDS011;1458;49.728;9.228;2023-03-23T10:36:55;3.50;;;3.50;;
2896;SDS011;1458;49.728;9.228;2023-03-23T10:39:32;3.00;;;3.00;;
2896;SDS011;1458;49.728;9.228;2023-03-23T10:42:09;3.40;;;3.40;;
2896;SDS011;1458;49.728;9.228;2023-03-23T10:44:37;3.40;;;3.40;;
2896;SDS011;1458;49.728;9.228;2023-03-23T10:47:07;4.20;;;4.20;;
2896;SDS011;1458;49.728;9.228;2023-03-23T10:49:38;4.13;;;4.13;;
2896;SDS011;1458;49.728;9.228;2023-03-23T10:52:24;3.70;;;3.70;;
2896;SDS011;1458;49.728;9.228;2023-03-23T10:54:57;3.77;;;3.77;;
2896;SDS011;1458;49.728;9.228;2023-03-23T10:57:31;3.50;;;3.50;;
2896;SDS011;1458;49.728;9.228;2023-03-23T11:00:02;3.50;;;3.50;;
2896;SDS011;1458;49.728;9.228;2023-03-23T11:02:36;3.40;;;3.40;;
2896;SDS011;1458;49.728;9.228;2023-03-23T11:05:13;3.30;;;3.30;;
2896;SDS011;1458;49.728;9.228;2023-03-23T11:07:50;3.70;;;3.70;;
2896;SDS011;1458;49.728;9.228;2023-03-23T11:10:21;3.30;;;3.30;;
2896;SDS011;1458;49.728;9.228;2023-03-23T11:12:51;3.20;;;3.20;;
2896;SDS011;1458;49.728;9.228;2023-03-23T11:15:28;3.20;;;3.20;;
2896;SDS011;1458;49.728;9.228;2023-03-23T11:18:00;2.90;;;2.90;;
2896;SDS011;1458;49.728;9.228;2023-03-23T11:20:35;2.70;;;2.70;;
2896;SDS011;1458;49.728;9.228;2023-03-23T11:23:18;2.50;;;2.50;;
2896;SDS011;1458;49.728;9.228;2023-03-23T11:25:53;2.30;;;2.30;;
2896;SDS011;1458;49.728;9.228;2023-03-23T11:28:28;2.40;;;2.40;;
2896;SDS011;1458;49.728;9.228;2023-03-23T11:30:59;2.20;;;2.20;;
2896;SDS011;1458;49.728;9.228;2023-03-23T11:33:34;2.27;;;2.27;;
2896;SDS011;1458;49.728;9.228;2023-03-23T11:36:06;2.40;;;2.40;;
2896;SDS011;1458;49.728;9.228;2023-03-23T11:38:35;2.40;;;2.40;;
2896;SDS011;1458;49.728;9.228;2023-03-23T11:41:08;2.40;;;2.40;;
2896;SDS011;1458;49.728;9.228;2023-03-23T11:43:39;2.70;;;2.70;;
2896;SDS011;1458;49.728;9.228;2023-03-23T11:46:13;2.70;;;2.70;;
2896;SDS011;1458;49.728;9.228;2023-03-23T11:49:02;2.60;;;2.60;;
2896;SDS011;1458;49.728;9.228;2023-03-23T11:51:39;2.60;;;2.60;;
2896;SDS011;1458;49.728;9.228;2023-03-23T11:54:13;2.70;;;2.70;;
2896;SDS011;1458;49.728;9.228;2023-03-23T11:56:47;2.80;;;2.80;;
2896;SDS011;1458;49.728;9.228;2023-03-23T11:59:15;2.70;;;2.70;;
2896;SDS011;1458;49.728;9.228;2023-03-23T12:01:53;3.20;;;3.20;;
2896;SDS011;1458;49.728;9.228;2023-03-23T12:04:35;3.30;;;3.30;;
2896;SDS011;1458;49.728;9.228;2023-03-23T12:07:17;2.80;;;2.80;;
2896;SDS011;1458;49.728;9.228;2023-03-23T12:10:16;2.40;;;2.40;;
2896;SDS011;1458;49.728;9.228;2023-03-23T12:12:55;2.60;;;2.60;;
2896;SDS011;1458;49.728;9.228;2023-03-23T12:15:34;2.00;;;2.00;;
2896;SDS011;1458;49.728;9.228;2023-03-23T12:18:14;2.30;;;2.30;;
2896;SDS011;1458;49.728;9.228;2023-03-23T12:20:52;2.40;;;2.40;;
2896;SDS011;1458;49.728;9.228;2023-03-23T12:23:33;2.60;;;2.60;;
2896;SDS011;1458;49.728;9.228;2023-03-23T12:26:10;2.30;;;2.30;;
2896;SDS011;1458;49.728;9.228;2023-03-23T12:31:59;2.80;;;2.80;;
2896;SDS011;1458;49.728;9.228;2023-03-23T12:34:49;2.60;;;2.60;;
2896;SDS011;1458;49.728;9.228;2023-03-23T12:37:28;3.10;;;3.10;;
2896;SDS011;1458;49.728;9.228;2023-03-23T12:40:17;3.10;;;3.10;;
2896;SDS011;1458;49.728;9.228;2023-03-23T12:43:01;2.90;;;2.90;;
2896;SDS011;1458;49.728;9.228;2023-03-23T12:45:51;2.97;;;2.97;;
2896;SDS011;1458;49.728;9.228;2023-03-23T12:48:38;3.60;;;3.60;;
2896;SDS011;1458;49.728;9.228;2023-03-23T12:51:11;4.00;;;4.00;;
2896;SDS011;1458;49.728;9.228;2023-03-23T12:53:50;4.30;;;4.30;;
2896;SDS011;1458;49.728;9.228;2023-03-23T12:56:24;4.30;;;4.30;;
2896;SDS011;1458;49.728;9.228;2023-03-23T12:59:00;4.50;;;4.50;;
2896;SDS011;1458;49.728;9.228;2023-03-23T13:01:38;4.50;;;4.50;;
2896;SDS011;1458;49.728;9.228;2023-03-23T13:04:11;4.90;;;4.90;;
2896;SDS011;1458;49.728;9.228;2023-03-23T13:06:45;4.43;;;4.43;;
2896;SDS011;1458;49.728;9.228;2023-03-23T13:09:16;4.80;;;4.80;;
2896;SDS011;1458;49.728;9.228;2023-03-23T13:11:51;4.70;;;4.70;;
2896;SDS011;1458;49.728;9.228;2023-03-23T13:14:25;4.70;;;4.70;;
2896;SDS011;1458;49.728;9.228;2023-03-23T13:17:06;4.80;;;4.80;;
2896;SDS011;1458;49.728;9.228;2023-03-23T13:19:59;4.50;;;4.50;;
2896;SDS011;1458;49.728;9.228;2023-03-23T13:22:46;4.80;;;4.80;;
2896;SDS011;1458;49.728;9.228;2023-03-23T13:25:27;4.40;;;4.40;;
2896;SDS011;1458;49.728;9.228;2023-03-23T13:28:14;4.43;;;4.43;;
2896;SDS011;1458;49.728;9.228;2023-03-23T13:31:02;4.30;;;4.30;;
2896;SDS011;1458;49.728;9.228;2023-03-23T13:33:38;4.50;;;4.50;;
2896;SDS011;1458;49.728;9.228;2023-03-23T13:36:13;4.40;;;4.40;;
2896;SDS011;1458;49.728;9.228;2023-03-23T13:38:44;4.40;;;4.40;;
2896;SDS011;1458;49.728;9.228;2023-03-23T13:41:16;4.40;;;4.40;;
2896;SDS011;1458;49.728;9.228;2023-03-23T13:43:47;4.50;;;4.50;;
2896;SDS011;1458;49.728;9.228;2023-03-23T13:46:26;4.97;;;4.97;;
2896;SDS011;1458;49.728;9.228;2023-03-23T13:49:03;4.43;;;4.43;;
2896;SDS011;1458;49.728;9.228;2023-03-23T13:51:52;4.53;;;4.53;;
2896;SDS011;1458;49.728;9.228;2023-03-23T13:54:30;4.10;;;4.10;;
2896;SDS011;1458;49.728;9.228;2023-03-23T13:57:35;4.20;;;4.20;;
2896;SDS011;1458;49.728;9.228;2023-03-23T14:00:23;4.00;;;4.00;;
2896;SDS011;1458;49.728;9.228;2023-03-23T14:03:12;3.90;;;3.90;;
2896;SDS011;1458;49.728;9.228;2023-03-23T14:05:44;3.40;;;3.40;;
2896;SDS011;1458;49.728;9.228;2023-03-23T14:08:21;3.30;;;3.30;;
2896;SDS011;1458;49.728;9.228;2023-03-23T14:10:53;3.10;;;3.10;;
2896;SDS011;1458;49.728;9.228;2023-03-23T14:13:30;3.23;;;3.23;;
2896;SDS011;1458;49.728;9.228;2023-03-23T14:16:13;2.90;;;2.90;;
2896;SDS011;1458;49.728;9.228;2023-03-23T14:18:48;2.90;;;2.90;;
2896;SDS011;1458;49.728;9.228;2023-03-23T14:21:26;2.90;;;2.90;;
2896;SDS011;1458;49.728;9.228;2023-03-23T14:24:05;3.10;;;3.10;;
2896;SDS011;1458;49.728;9.228;2023-03-23T14:26:37;3.07;;;3.07;;
2896;SDS011;1458;49.728;9.228;2023-03-23T14:29:09;3.23;;;3.23;;
2896;SDS011;1458;49.728;9.228;2023-03-23T14:31:38;2.90;;;2.90;;
2896;SDS011;1458;49.728;9.228;2023-03-23T14:34:10;2.80;;;2.80;;
2896;SDS011;1458;49.728;9.228;2023-03-23T14:36:40;3.00;;;3.00;;
2896;SDS011;1458;49.728;9.228;2023-03-23T14:39:13;2.80;;;2.80;;
2896;SDS011;1458;49.728;9.228;2023-03-23T14:41:47;2.80;;;2.80;;
2896;SDS011;1458;49.728;9.228;2023-03-23T14:44:18;2.60;;;2.60;;
2896;SDS011;1458;49.728;9.228;2023-03-23T14:46:50;2.60;;;2.60;;
2896;SDS011;1458;49.728;9.228;2023-03-23T14:49:21;2.50;;;2.50;;
2896;SDS011;1458;49.728;9.228;2023-03-23T14:51:56;2.70;;;2.70;;
2896;SDS011;1458;49.728;9.228;2023-03-23T14:54:25;2.50;;;2.50;;
2896;SDS011;1458;49.728;9.228;2023-03-23T14:56:55;2.20;;;2.20;;
2896;SDS011;1458;49.728;9.228;2023-03-23T14:59:24;2.50;;;2.50;;
2896;SDS011;1458;49.728;9.228;2023-03-23T15:01:51;2.27;;;2.27;;
2896;SDS011;1458;49.728;9.228;2023-03-23T15:04:20;1.93;;;1.93;;
2896;SDS011;1458;49.728;9.228;2023-03-23T15:06:52;1.80;;;1.80;;
2896;SDS011;1458;49.728;9.228;2023-03-23T15:09:23;1.80;;;1.80;;
2896;SDS011;1458;49.728;9.228;2023-03-23T15:11:53;1.70;;;1.70;;
2896;SDS011;1458;49.728;9.228;2023-03-23T15:14:26;1.60;;;1.60;;
2896;SDS011;1458;49.728;9.228;2023-03-23T15:16:57;1.30;;;1.30;;
2896;SDS011;1458;49.728;9.228;2023-03-23T15:19:27;1.40;;;1.40;;
2896;SDS011;1458;49.728;9.228;2023-03-23T15:22:05;1.30;;;1.30;;
2896;SDS011;1458;49.728;9.228;2023-03-23T15:24:39;1.20;;;1.20;;
2896;SDS011;1458;49.728;9.228;2023-03-23T15:27:12;1.20;;;1.20;;
2896;SDS011;1458;49.728;9.228;2023-03-23T15:29:49;1.00;;;1.00;;
2896;SDS011;1458;49.728;9.228;2023-03-23T15:32:27;0.90;;;0.90;;
2896;SDS011;1458;49.728;9.228;2023-03-23T15:34:56;0.80;;;0.80;;
2896;SDS011;1458;49.728;9.228;2023-03-23T15:37:33;0.90;;;0.90;;
2896;SDS011;1458;49.728;9.228;2023-03-23T15:40:13;0.70;;;0.70;;
2896;SDS011;1458;49.728;9.228;2023-03-23T15:42:42;0.90;;;0.90;;
2896;SDS011;1458;49.728;9.228;2023-03-23T15:45:24;0.80;;;0.80;;
2896;SDS011;1458;49.728;9.228;2023-03-23T15:47:53;0.77;;;0.77;;
2896;SDS011;1458;49.728;9.228;2023-03-23T15:50:32;0.77;;;0.77;;
2896;SDS011;1458;49.728;9.228;2023-03-23T15:53:01;0.70;;;0.70;;
2896;SDS011;1458;49.728;9.228;2023-03-23T15:55:45;0.73;;;0.73;;
2896;SDS011;1458;49.728;9.228;2023-03-23T15:58:12;0.60;;;0.60;;
2896;SDS011;1458;49.728;9.228;2023-03-23T16:00:42;0.73;;;0.73;;
2896;SDS011;1458;49.728;9.228;2023-03-23T16:03:11;0.60;;;0.60;;
2896;SDS011;1458;49.728;9.228;2023-03-23T16:05:43;0.60;;;0.60;;
2896;SDS011;1458;49.728;9.228;2023-03-23T16:08:11;0.70;;;0.70;;
2896;SDS011;1458;49.728;9.228;2023-03-23T16:10:39;0.60;;;0.60;;
2896;SDS011;1458;49.728;9.228;2023-03-23T16:13:08;0.60;;;0.60;;
2896;SDS011;1458;49.728;9.228;2023-03-23T16:15:35;0.60;;;0.60;;
2896;SDS011;1458;49.728;9.228;2023-03-23T16:18:04;0.50;;;0.50;;